Time;durP1;ratioP1;P1;durP2;ratioP2;P2;SDS_P1;SDS_P2;PMS_P1;PMS_P2;Temp;Humidity;BMP_temperature;BMP_pressure;BME280_temperature;BME280_humidity;BME280_pressure;Samples;Min_cycle;Max_cycle;Signal;HPM_P1;HPM_P2
2023/05/24 00:01:37;;;;;;;4.10;3.70;;;19.80;73.70;;;;;;5063401;28;20037;-73
2023/05/24 00:04:03;;;;;;;5.22;3.70;;;19.80;73.70;;;;;;5059468;28;20075;-74
2023/05/24 00:06:29;;;;;;;6.80;3.60;;;19.80;73.90;;;;;;5059919;28;20091;-74
2023/05/24 00:08:55;;;;;;;5.22;3.40;;;19.80;73.80;;;;;;5043447;28;20880;-73
2023/05/24 00:11:21;;;;;;;9.18;3.97;;;19.80;73.90;;;;;;5030740;28;20395;-72
2023/05/24 00:13:48;;;;;;;8.05;3.80;;;19.80;74.10;;;;;;5063639;28;20544;-76
2023/05/24 00:16:14;;;;;;;5.20;3.67;;;19.80;74.30;;;;;;5060823;28;20070;-73
2023/05/24 00:18:40;;;;;;;7.03;4.13;;;19.80;74.10;;;;;;5060673;28;20037;-73
2023/05/24 00:21:07;;;;;;;5.65;4.10;;;19.80;73.90;;;;;;5063032;28;20032;-76
2023/05/24 00:23:35;;;;;;;6.55;4.05;;;19.80;74.00;;;;;;5061427;28;20756;-75
2023/05/24 00:26:05;;;;;;;6.85;3.95;;;19.80;74.20;;;;;;5062118;28;20082;-75
2023/05/24 00:28:31;;;;;;;6.60;3.97;;;19.80;74.50;;;;;;5060389;28;20058;-75
2023/05/24 00:30:57;;;;;;;5.70;3.85;;;19.80;73.80;;;;;;5030462;28;20637;-75
2023/05/24 00:33:24;;;;;;;6.72;4.10;;;19.80;74.00;;;;;;5044385;28;20119;-75
2023/05/24 00:35:57;;;;;;;6.13;3.88;;;19.70;74.10;;;;;;5043575;28;20376;-75
2023/05/24 00:38:26;;;;;;;8.93;4.05;;;19.70;74.20;;;;;;5048238;28;20028;-74
2023/05/24 00:40:56;;;;;;;6.20;3.90;;;19.70;74.40;;;;;;5046935;28;20514;-75
2023/05/24 00:43:23;;;;;;;7.38;4.15;;;19.70;74.30;;;;;;5059425;28;20506;-75
2023/05/24 00:46:18;;;;;;;8.95;4.25;;;19.60;74.60;;;;;;5039499;28;20090;-74
2023/05/24 00:48:45;;;;;;;7.07;3.92;;;19.70;74.90;;;;;;5054827;28;20024;-75
2023/05/24 00:51:12;;;;;;;7.28;3.88;;;19.70;74.40;;;;;;5042405;28;20059;-75
2023/05/24 00:53:40;;;;;;;6.25;4.13;;;19.70;74.70;;;;;;5061916;28;20053;-75
2023/05/24 00:56:07;;;;;;;7.03;4.07;;;19.70;74.70;;;;;;5060740;28;20499;-76
2023/05/24 00:58:33;;;;;;;5.55;4.00;;;19.60;74.60;;;;;;5030728;28;20127;-76
2023/05/24 01:01:02;;;;;;;7.43;4.43;;;19.60;74.40;;;;;;5061118;28;20071;-73
2023/05/24 01:03:28;;;;;;;4.85;4.35;;;19.60;74.30;;;;;;5041251;28;20033;-76
2023/05/24 01:05:56;;;;;;;7.97;4.20;;;19.60;74.50;;;;;;5060207;28;20056;-76
2023/05/24 01:09:03;;;;;;;9.52;4.75;;;19.60;74.50;;;;;;5043142;28;20021;-75
2023/05/24 01:12:15;;;;;;;5.25;3.75;;;19.60;74.90;;;;;;5058616;28;20024;-75
2023/05/24 01:14:50;;;;;;;8.57;4.65;;;19.60;74.70;;;;;;5000860;28;20635;-75
2023/05/24 01:17:31;;;;;;;7.85;4.88;;;19.60;74.70;;;;;;5050450;28;20499;-75
2023/05/24 01:20:07;;;;;;;5.28;4.53;;;19.50;74.60;;;;;;4967318;28;20058;-76
2023/05/24 01:22:48;;;;;;;9.95;4.65;;;19.50;74.70;;;;;;4967407;28;20134;-76
2023/05/24 01:25:46;;;;;;;6.93;4.55;;;19.40;74.70;;;;;;4967548;28;20043;-76
2023/05/24 01:28:15;;;;;;;5.78;4.80;;;19.40;74.90;;;;;;4950450;28;20045;-76
2023/05/24 01:30:42;;;;;;;6.70;4.88;;;19.40;74.90;;;;;;4964424;28;20072;-74
2023/05/24 01:33:08;;;;;;;7.22;5.28;;;19.30;74.90;;;;;;4965711;28;20047;-75
2023/05/24 01:35:39;;;;;;;7.88;5.18;;;19.30;75.10;;;;;;4964204;28;20393;-75
2023/05/24 01:38:11;;;;;;;6.18;4.90;;;19.20;75.20;;;;;;4965213;28;20058;-75
2023/05/24 01:40:39;;;;;;;11.82;5.50;;;19.20;76.00;;;;;;4963056;28;20805;-75
2023/05/24 01:43:23;;;;;;;9.43;5.13;;;19.20;75.70;;;;;;4963897;28;20048;-75
2023/05/24 01:46:18;;;;;;;6.47;5.07;;;19.20;75.80;;;;;;4966746;28;20494;-75
2023/05/24 01:48:57;;;;;;;5.60;4.78;;;19.20;75.80;;;;;;4967998;28;20028;-75
2023/05/24 01:51:25;;;;;;;10.35;4.93;;;19.20;75.80;;;;;;4967668;28;20161;-75
2023/05/24 01:53:52;;;;;;;6.88;4.93;;;19.10;75.80;;;;;;4967115;28;20131;-74
2023/05/24 01:56:19;;;;;;;6.05;4.80;;;19.10;75.90;;;;;;4963842;28;20045;-75
2023/05/24 01:58:47;;;;;;;5.28;4.43;;;19.10;76.00;;;;;;4947962;28;20092;-75
2023/05/24 02:01:13;;;;;;;8.90;4.60;;;19.00;75.90;;;;;;4967371;28;20446;-74
2023/05/24 02:03:40;;;;;;;9.65;4.70;;;19.10;76.00;;;;;;4964458;28;20035;-75
2023/05/24 02:06:07;;;;;;;7.53;3.70;;;19.00;76.20;;;;;;4961896;28;20073;-75
2023/05/24 02:08:33;;;;;;;6.20;4.75;;;19.00;76.20;;;;;;4963060;28;20043;-74
2023/05/24 02:10:59;;;;;;;6.45;4.18;;;19.00;76.30;;;;;;4962481;28;20030;-75
2023/05/24 02:13:25;;;;;;;5.18;4.20;;;19.00;76.40;;;;;;4962139;28;20049;-74
2023/05/24 02:15:52;;;;;;;5.68;4.20;;;19.00;76.60;;;;;;4951349;28;20582;-74
2023/05/24 02:18:18;;;;;;;6.53;4.90;;;18.90;76.70;;;;;;4987494;28;20126;-75
2023/05/24 02:20:45;;;;;;;7.38;5.00;;;18.80;77.00;;;;;;4964288;28;20577;-75
2023/05/24 02:23:11;;;;;;;9.52;4.97;;;18.80;77.10;;;;;;4967357;28;20030;-76
2023/05/24 02:25:37;;;;;;;11.30;5.18;;;18.80;77.40;;;;;;4966372;28;20405;-75
2023/05/24 02:28:03;;;;;;;6.78;4.93;;;18.90;77.70;;;;;;4960594;28;20448;-75
2023/05/24 02:30:29;;;;;;;7.72;5.15;;;18.90;77.60;;;;;;4963265;28;20035;-76
2023/05/24 02:32:56;;;;;;;7.55;4.97;;;18.90;77.80;;;;;;4963562;28;20394;-75
2023/05/24 02:35:22;;;;;;;7.50;5.00;;;18.90;77.70;;;;;;4961463;28;20521;-75
2023/05/24 02:37:48;;;;;;;6.65;4.85;;;19.00;77.70;;;;;;4963825;28;20035;-75
2023/05/24 02:40:14;;;;;;;9.23;4.90;;;18.90;77.60;;;;;;4962069;28;20032;-75
2023/05/24 02:42:40;;;;;;;7.22;4.78;;;18.90;77.70;;;;;;4964174;28;20130;-75
2023/05/24 02:45:06;;;;;;;6.47;5.32;;;19.00;77.90;;;;;;4963662;28;20042;-75
2023/05/24 02:47:32;;;;;;;7.38;5.05;;;19.00;78.10;;;;;;4962446;28;20042;-75
2023/05/24 02:49:58;;;;;;;9.65;4.85;;;18.90;78.00;;;;;;4965579;28;20405;-75
2023/05/24 02:52:25;;;;;;;8.70;4.90;;;19.00;78.20;;;;;;4950571;28;20436;-75
2023/05/24 02:54:52;;;;;;;6.03;4.40;;;19.00;78.30;;;;;;4965584;28;20733;-76
2023/05/24 02:57:20;;;;;;;7.90;4.22;;;19.00;78.40;;;;;;4964189;28;20493;-76
2023/05/24 02:59:46;;;;;;;8.75;4.60;;;19.00;78.50;;;;;;4950421;28;20501;-75
2023/05/24 03:02:12;;;;;;;5.53;4.95;;;18.90;78.40;;;;;;4965669;28;20073;-74
2023/05/24 03:04:39;;;;;;;6.95;5.22;;;19.00;78.70;;;;;;4965174;28;20047;-75
2023/05/24 03:07:09;;;;;;;5.05;4.53;;;18.90;78.60;;;;;;4966274;28;20038;-75
2023/05/24 03:09:35;;;;;;;5.85;4.78;;;19.00;78.70;;;;;;4960073;28;20077;-74
2023/05/24 03:12:01;;;;;;;6.55;4.80;;;18.90;78.70;;;;;;4965235;28;20031;-74
2023/05/24 03:14:28;;;;;;;7.63;5.03;;;18.90;78.80;;;;;;4961223;28;20069;-74
2023/05/24 03:16:54;;;;;;;6.70;4.55;;;18.90;78.70;;;;;;4962637;28;21150;-75
2023/05/24 03:19:20;;;;;;;11.15;4.93;;;18.90;78.90;;;;;;4964331;28;20117;-74
2023/05/24 03:21:47;;;;;;;7.72;4.65;;;19.00;78.90;;;;;;4962023;28;20035;-74
2023/05/24 03:24:13;;;;;;;5.57;4.03;;;19.00;78.90;;;;;;4966390;28;20047;-74
2023/05/24 03:26:40;;;;;;;6.00;4.40;;;19.00;78.80;;;;;;4959007;28;20035;-74
2023/05/24 03:29:06;;;;;;;7.35;4.53;;;19.00;78.40;;;;;;4961146;28;20038;-74
2023/05/24 03:31:36;;;;;;;7.60;4.22;;;19.10;78.20;;;;;;4965671;28;20050;-73
2023/05/24 03:34:02;;;;;;;6.95;4.78;;;19.10;78.10;;;;;;4961019;28;20039;-74
2023/05/24 03:36:29;;;;;;;7.35;4.72;;;19.10;77.80;;;;;;4965128;28;20031;-74
2023/05/24 03:38:57;;;;;;;8.43;4.40;;;19.20;77.60;;;;;;4962835;28;20066;-74
2023/05/24 03:41:24;;;;;;;6.70;4.38;;;19.40;77.50;;;;;;4965185;28;20505;-73
2023/05/24 03:43:51;;;;;;;6.10;4.20;;;19.60;76.90;;;;;;4965425;28;20047;-74
2023/05/24 03:46:18;;;;;;;9.68;5.13;;;19.80;76.30;;;;;;4944349;28;20379;-75
2023/05/24 03:48:44;;;;;;;4.93;4.43;;;20.10;75.50;;;;;;4962520;28;20065;-76
2023/05/24 03:51:10;;;;;;;7.15;4.47;;;20.30;74.70;;;;;;4963032;28;20035;-75
2023/05/24 03:53:36;;;;;;;9.65;4.90;;;20.40;74.00;;;;;;4967305;28;20513;-76
2023/05/24 03:56:02;;;;;;;6.90;4.45;;;20.50;73.60;;;;;;4966032;28;20039;-76
2023/05/24 03:58:28;;;;;;;6.13;4.65;;;20.50;73.50;;;;;;4962369;28;20077;-76
2023/05/24 04:00:54;;;;;;;7.03;4.35;;;20.50;73.40;;;;;;4961766;28;20039;-76
2023/05/24 04:03:21;;;;;;;6.15;4.32;;;20.70;73.10;;;;;;4962953;28;20112;-76
2023/05/24 04:05:47;;;;;;;10.00;3.95;;;20.80;72.50;;;;;;4961390;28;20035;-76
2023/05/24 04:08:13;;;;;;;8.43;4.28;;;21.00;71.80;;;;;;4960904;28;20035;-76
2023/05/24 04:10:40;;;;;;;5.95;4.15;;;21.00;71.00;;;;;;4960765;28;20410;-75
2023/05/24 04:13:10;;;;;;;7.50;4.40;;;21.10;71.20;;;;;;4960256;28;20121;-75
2023/05/24 04:15:39;;;;;;;7.43;4.45;;;21.10;70.60;;;;;;4962617;28;20505;-75
2023/05/24 04:18:05;;;;;;;6.75;4.20;;;21.10;70.60;;;;;;4962785;28;20055;-73
2023/05/24 04:20:33;;;;;;;6.07;4.10;;;21.10;70.80;;;;;;4964949;28;20394;-76
2023/05/24 04:22:59;;;;;;;7.30;3.92;;;21.20;71.20;;;;;;4965766;28;20030;-75
2023/05/24 04:25:26;;;;;;;9.77;4.05;;;21.20;71.30;;;;;;4966364;28;20070;-74
2023/05/24 04:27:54;;;;;;;6.47;3.70;;;21.30;71.70;;;;;;4966802;28;20042;-73
2023/05/24 04:30:21;;;;;;;7.70;3.97;;;21.60;71.30;;;;;;4949377;28;20041;-73
2023/05/24 04:32:47;;;;;;;5.43;3.30;;;22.00;70.40;;;;;;4969178;28;20066;-73
2023/05/24 04:35:15;;;;;;;3.55;2.90;;;22.40;69.50;;;;;;4965483;28;20106;-74
2023/05/24 04:37:41;;;;;;;6.55;3.50;;;22.60;68.90;;;;;;4964963;28;20073;-72
2023/05/24 04:40:08;;;;;;;6.88;3.72;;;23.10;66.90;;;;;;4961500;28;20062;-74
2023/05/24 04:42:34;;;;;;;6.07;3.38;;;23.50;66.10;;;;;;4962465;28;20050;-75
2023/05/24 04:45:01;;;;;;;8.48;3.90;;;23.80;65.40;;;;;;4961907;28;20066;-76
2023/05/24 04:47:27;;;;;;;5.43;4.13;;;24.20;63.80;;;;;;4960189;28;20483;-77
2023/05/24 04:49:53;;;;;;;7.32;4.35;;;24.40;64.20;;;;;;4965126;28;20093;-75
2023/05/24 04:52:19;;;;;;;8.90;4.93;;;24.20;64.40;;;;;;4960884;28;20039;-73
2023/05/24 04:54:45;;;;;;;15.93;5.18;;;24.20;64.80;;;;;;4964463;28;20038;-75
2023/05/24 04:57:11;;;;;;;8.73;5.22;;;24.10;65.40;;;;;;4963062;28;20062;-76
2023/05/24 04:59:37;;;;;;;12.88;6.95;;;24.20;65.70;;;;;;4961719;28;20592;-75
2023/05/24 05:02:03;;;;;;;11.52;6.95;;;24.20;66.30;;;;;;4964762;28;20035;-78
2023/05/24 05:04:29;;;;;;;11.32;6.90;;;24.30;66.70;;;;;;4962723;28;20039;-77
2023/05/24 05:06:56;;;;;;;9.63;5.82;;;24.40;65.30;;;;;;4965021;28;20534;-79
2023/05/24 05:09:23;;;;;;;8.60;5.38;;;24.50;63.40;;;;;;4963693;28;20062;-79
2023/05/24 05:11:49;;;;;;;10.95;5.00;;;24.60;64.60;;;;;;4965795;28;20677;-78
2023/05/24 05:14:16;;;;;;;11.98;4.50;;;24.60;64.50;;;;;;4961734;28;21075;-78
2023/05/24 05:16:42;;;;;;;6.05;4.07;;;24.60;63.10;;;;;;4960768;28;20609;-79
2023/05/24 05:19:08;;;;;;;9.50;4.82;;;24.60;63.60;;;;;;4959308;28;20637;-77
2023/05/24 05:21:34;;;;;;;7.53;4.45;;;24.50;63.10;;;;;;4961798;28;20070;-77
2023/05/24 05:24:00;;;;;;;7.15;4.78;;;24.50;63.30;;;;;;4960932;28;20042;-78
2023/05/24 05:26:27;;;;;;;8.20;4.93;;;24.40;62.90;;;;;;4958673;28;20089;-78
2023/05/24 05:28:56;;;;;;;9.70;4.47;;;24.30;63.10;;;;;;4960104;28;20031;-78
2023/05/24 05:31:22;;;;;;;5.55;4.25;;;24.30;63.10;;;;;;4959734;28;20529;-79
2023/05/24 05:33:49;;;;;;;8.50;4.35;;;24.20;63.40;;;;;;4958635;28;20136;-78
2023/05/24 05:36:15;;;;;;;6.57;4.35;;;24.20;63.40;;;;;;4960539;28;20039;-77
2023/05/24 05:38:41;;;;;;;7.78;4.38;;;24.10;63.70;;;;;;4961882;28;20126;-78
2023/05/24 05:41:07;;;;;;;7.68;4.55;;;24.00;63.90;;;;;;4958613;28;20432;-79
2023/05/24 05:43:33;;;;;;;7.90;4.90;;;23.90;63.50;;;;;;4958266;28;20189;-78
2023/05/24 05:46:00;;;;;;;7.50;4.88;;;23.90;63.60;;;;;;4976123;28;20130;-78
2023/05/24 05:48:26;;;;;;;5.85;4.43;;;23.80;63.60;;;;;;4960237;28;20043;-77
2023/05/24 05:50:52;;;;;;;6.57;4.00;;;23.70;63.70;;;;;;4961156;28;20051;-76
2023/05/24 05:53:18;;;;;;;5.38;4.28;;;23.70;63.80;;;;;;4964472;28;20444;-77
2023/05/24 05:55:44;;;;;;;5.72;4.32;;;23.60;63.50;;;;;;4960915;28;20028;-77
2023/05/24 05:58:11;;;;;;;10.25;4.85;;;23.60;63.80;;;;;;4960617;28;20718;-78
2023/05/24 06:00:38;;;;;;;6.22;4.15;;;23.50;64.00;;;;;;4964111;28;20043;-79
2023/05/24 06:03:04;;;;;;;5.97;4.20;;;23.50;63.80;;;;;;4962566;28;20031;-78
2023/05/24 06:05:30;;;;;;;6.97;4.55;;;23.40;63.90;;;;;;4966635;28;20034;-77
2023/05/24 06:07:56;;;;;;;5.07;4.00;;;23.40;64.50;;;;;;4962526;28;20035;-77
2023/05/24 06:10:22;;;;;;;6.88;4.10;;;23.40;64.50;;;;;;4966091;28;20038;-78
2023/05/24 06:12:48;;;;;;;7.57;4.00;;;23.40;64.80;;;;;;4964268;28;20037;-80
2023/05/24 06:15:14;;;;;;;6.53;4.13;;;23.40;64.70;;;;;;4964675;28;20031;-79
2023/05/24 06:17:42;;;;;;;5.60;4.30;;;23.30;64.50;;;;;;4964545;28;20142;-79
2023/05/24 06:20:12;;;;;;;7.10;4.50;;;23.40;64.50;;;;;;4966703;28;20447;-81
2023/05/24 06:22:38;;;;;;;7.25;4.22;;;23.50;64.20;;;;;;4964112;28;20038;-80
2023/05/24 06:25:05;;;;;;;5.57;4.10;;;23.50;63.90;;;;;;4964178;28;20397;-81
2023/05/24 06:27:31;;;;;;;8.32;3.92;;;23.60;63.80;;;;;;4972483;28;20035;-82
2023/05/24 06:29:57;;;;;;;9.38;4.28;;;23.60;64.30;;;;;;4954875;28;20043;-84
2023/05/24 06:32:23;;;;;;;7.97;4.30;;;23.70;63.70;;;;;;4964479;28;20073;-80
2023/05/24 06:34:49;;;;;;;4.90;3.65;;;23.70;63.80;;;;;;4964156;28;20033;-80
2023/05/24 06:37:15;;;;;;;8.82;4.57;;;23.70;63.70;;;;;;4964736;28;20042;-79
2023/05/24 06:39:41;;;;;;;7.45;4.38;;;23.80;63.80;;;;;;4966152;28;20031;-79
2023/05/24 06:42:07;;;;;;;4.82;4.32;;;23.70;64.20;;;;;;4962160;28;20125;-81
2023/05/24 06:44:35;;;;;;;6.45;4.47;;;23.60;64.20;;;;;;4966080;28;20084;-79
2023/05/24 06:47:02;;;;;;;7.05;4.88;;;23.40;64.60;;;;;;4967637;28;20043;-79
2023/05/24 06:49:28;;;;;;;6.07;4.50;;;23.40;65.10;;;;;;4963700;28;20122;-78
2023/05/24 06:51:54;;;;;;;8.98;4.65;;;23.40;65.00;;;;;;4963362;28;20130;-78
2023/05/24 06:54:20;;;;;;;6.65;4.78;;;23.30;64.90;;;;;;4966472;28;20031;-78
2023/05/24 06:56:46;;;;;;;9.38;4.53;;;23.30;64.90;;;;;;4965805;28;20509;-78
2023/05/24 06:59:12;;;;;;;7.10;4.38;;;23.40;65.00;;;;;;4964482;28;21520;-78
2023/05/24 07:01:41;;;;;;;6.53;4.15;;;23.40;65.00;;;;;;4963595;28;20447;-79
2023/05/24 07:04:08;;;;;;;5.55;4.18;;;23.30;64.80;;;;;;4962815;28;20456;-79
2023/05/24 07:06:36;;;;;;;5.80;4.80;;;23.30;64.60;;;;;;4964659;28;20934;-79
2023/05/24 07:09:03;;;;;;;8.07;4.90;;;23.30;65.10;;;;;;4963073;28;20039;-79
2023/05/24 07:11:30;;;;;;;5.53;4.20;;;23.30;65.20;;;;;;4962551;28;20071;-78
2023/05/24 07:13:56;;;;;;;6.40;4.35;;;23.30;65.00;;;;;;4962304;28;20069;-77
2023/05/24 07:16:22;;;;;;;5.43;4.40;;;23.20;64.90;;;;;;4963344;28;20437;-80
2023/05/24 07:18:48;;;;;;;5.85;4.40;;;23.30;65.00;;;;;;4963372;28;20042;-79
2023/05/24 07:21:14;;;;;;;4.97;4.47;;;23.30;65.00;;;;;;4962400;28;20035;-79
2023/05/24 07:23:40;;;;;;;12.43;5.25;;;23.30;65.00;;;;;;4963640;28;20058;-78
2023/05/24 07:26:07;;;;;;;5.00;4.10;;;23.30;64.90;;;;;;4962999;28;20027;-79
2023/05/24 07:28:36;;;;;;;6.00;4.07;;;23.30;65.00;;;;;;4964802;28;20058;-75
2023/05/24 07:31:03;;;;;;;5.90;4.13;;;23.40;65.30;;;;;;4950216;28;20039;-78
2023/05/24 07:33:29;;;;;;;7.32;4.40;;;23.30;65.10;;;;;;4962804;28;20488;-78
2023/05/24 07:35:55;;;;;;;6.80;4.30;;;23.40;65.20;;;;;;4962248;28;20031;-77
2023/05/24 07:38:21;;;;;;;7.90;4.10;;;23.40;65.10;;;;;;4966171;28;20490;-79
2023/05/24 07:40:47;;;;;;;7.13;4.38;;;23.40;65.50;;;;;;4962275;28;20035;-79
2023/05/24 07:43:14;;;;;;;6.00;4.80;;;23.30;65.70;;;;;;4964366;28;20423;-76
2023/05/24 07:45:40;;;;;;;5.70;4.30;;;23.40;65.50;;;;;;4962263;28;20031;-79
2023/05/24 07:48:06;;;;;;;4.93;4.38;;;23.30;65.80;;;;;;4962462;28;20394;-79
2023/05/24 07:50:32;;;;;;;6.97;4.22;;;23.30;65.80;;;;;;4963908;28;20058;-80
2023/05/24 07:52:58;;;;;;;6.55;4.13;;;23.30;65.80;;;;;;4962783;28;20027;-85
2023/05/24 07:55:24;;;;;;;8.48;4.93;;;23.30;65.80;;;;;;4969081;28;20532;-86
2023/05/24 07:57:50;;;;;;;8.27;4.30;;;23.30;65.80;;;;;;4963124;28;20035;-84
2023/05/24 08:00:16;;;;;;;6.60;4.45;;;23.40;65.50;;;;;;4965307;28;20161;-83
2023/05/24 08:02:45;;;;;;;7.38;4.70;;;23.40;65.30;;;;;;4965145;28;20035;-84
2023/05/24 08:05:12;;;;;;;5.35;4.20;;;23.40;65.20;;;;;;4966497;28;20035;-85
2023/05/24 08:07:39;;;;;;;5.75;4.20;;;23.40;65.20;;;;;;4962368;28;20031;-85
2023/05/24 08:10:06;;;;;;;6.57;4.53;;;23.40;65.30;;;;;;4960109;28;20031;-85
2023/05/24 08:12:32;;;;;;;6.57;4.75;;;23.50;64.80;;;;;;4963023;28;20043;-85
2023/05/24 08:14:58;;;;;;;8.50;4.50;;;23.50;64.80;;;;;;4964043;28;20046;-85
2023/05/24 08:17:26;;;;;;;9.90;4.63;;;23.50;65.00;;;;;;4964922;28;20039;-86
2023/05/24 08:19:52;;;;;;;6.95;4.70;;;23.50;64.80;;;;;;4961088;28;20037;-85
2023/05/24 08:22:18;;;;;;;7.30;4.60;;;23.60;64.70;;;;;;4962332;28;20412;-81
2023/05/24 08:24:44;;;;;;;6.63;4.38;;;23.60;64.70;;;;;;4962102;28;20134;-86
2023/05/24 08:27:11;;;;;;;7.03;4.25;;;23.50;64.90;;;;;;4965060;28;20031;-84
2023/05/24 08:29:38;;;;;;;7.60;4.45;;;23.60;64.40;;;;;;4949314;28;20046;-82
2023/05/24 08:32:08;;;;;;;6.65;4.47;;;23.60;64.50;;;;;;4962801;28;20037;-84
2023/05/24 08:34:37;;;;;;;8.18;4.63;;;23.60;64.50;;;;;;4975605;28;20152;-81
2023/05/24 08:37:04;;;;;;;5.95;3.97;;;23.60;64.30;;;;;;4962288;28;20058;-88
2023/05/24 08:39:30;;;;;;;8.02;4.28;;;23.60;64.30;;;;;;4963560;28;20031;-86
2023/05/24 08:41:58;;;;;;;8.98;4.57;;;23.60;64.40;;;;;;4965666;28;20035;-85
2023/05/24 08:44:24;;;;;;;10.07;4.32;;;23.60;64.40;;;;;;4962225;28;20055;-82
2023/05/24 08:46:52;;;;;;;6.97;4.13;;;23.60;64.20;;;;;;4961041;28;20511;-88
2023/05/24 08:49:18;;;;;;;5.65;4.18;;;23.70;64.50;;;;;;4961744;28;20041;-85
2023/05/24 08:51:44;;;;;;;5.72;4.63;;;23.60;64.40;;;;;;4962501;28;20042;-85
2023/05/24 08:54:12;;;;;;;5.82;4.53;;;23.70;64.90;;;;;;4965713;28;20060;-85
2023/05/24 08:56:39;;;;;;;8.10;4.22;;;23.70;64.80;;;;;;4962370;28;20038;-87
2023/05/24 08:59:07;;;;;;;4.45;4.03;;;23.70;64.60;;;;;;4961340;28;20489;-83
2023/05/24 09:01:38;;;;;;;7.45;4.90;;;23.70;64.50;;;;;;4964958;28;20655;-84
2023/05/24 09:04:05;;;;;;;9.85;4.15;;;23.70;64.60;;;;;;4953676;28;20046;-86
2023/05/24 09:06:31;;;;;;;8.60;4.07;;;23.80;64.90;;;;;;4981885;28;20035;-88
2023/05/24 09:09:01;;;;;;;7.75;4.65;;;23.80;64.90;;;;;;4962925;28;20042;-84
2023/05/24 09:11:27;;;;;;;7.03;3.92;;;23.80;64.80;;;;;;4963077;28;20030;-86
2023/05/24 09:13:55;;;;;;;6.95;3.95;;;23.80;65.00;;;;;;4961661;28;20031;-84
2023/05/24 09:16:21;;;;;;;7.63;4.65;;;23.80;64.70;;;;;;4961024;28;20032;-85
2023/05/24 09:18:47;;;;;;;6.72;4.10;;;23.90;64.20;;;;;;4962935;28;20045;-85
2023/05/24 09:21:13;;;;;;;4.93;3.67;;;23.90;63.70;;;;;;4961358;28;20775;-85
2023/05/24 09:23:40;;;;;;;10.43;4.65;;;23.90;64.10;;;;;;4960010;28;20035;-83
2023/05/24 09:26:08;;;;;;;8.52;4.40;;;23.80;64.00;;;;;;4961395;28;20121;-79
2023/05/24 09:28:35;;;;;;;10.43;5.35;;;23.70;64.80;;;;;;4960225;28;20100;-78
2023/05/24 09:31:02;;;;;;;11.38;4.80;;;23.60;64.80;;;;;;4962366;28;20339;-79
2023/05/24 09:33:31;;;;;;;9.07;4.25;;;23.40;65.20;;;;;;4961955;28;20452;-79
2023/05/24 09:35:58;;;;;;;7.35;4.20;;;23.40;64.00;;;;;;4959975;28;20176;-75
2023/05/24 09:38:25;;;;;;;8.32;4.55;;;23.30;64.40;;;;;;4965871;28;20114;-75
2023/05/24 09:40:59;;;;;;;7.57;3.95;;;23.30;63.80;;;;;;4964740;28;20110;-78
2023/05/24 09:43:25;;;;;;;9.75;4.13;;;23.30;64.00;;;;;;4963010;28;20056;-78
2023/05/24 09:45:52;;;;;;;8.68;4.13;;;23.20;63.90;;;;;;4964548;28;20131;-79
2023/05/24 09:48:19;;;;;;;7.10;3.88;;;23.10;63.80;;;;;;4963363;28;20382;-78
2023/05/24 09:51:08;;;;;;;9.35;3.50;;;23.20;63.60;;;;;;4963116;28;20370;-79
2023/05/24 09:53:35;;;;;;;6.32;4.05;;;23.20;63.90;;;;;;4965406;28;20034;-78
2023/05/24 09:56:07;;;;;;;4.78;3.70;;;23.20;64.00;;;;;;4963851;28;20036;-77
2023/05/24 09:58:33;;;;;;;7.78;3.97;;;23.20;64.60;;;;;;4967640;28;20039;-77
2023/05/24 10:01:07;;;;;;;4.43;3.72;;;23.20;64.00;;;;;;4962575;28;20129;-79
2023/05/24 10:03:36;;;;;;;5.20;3.80;;;23.10;64.10;;;;;;4964753;28;20488;-77
2023/05/24 10:06:06;;;;;;;9.45;4.03;;;23.30;64.30;;;;;;4963347;28;20529;-78
2023/05/24 10:08:38;;;;;;;9.95;4.13;;;23.30;64.20;;;;;;4963821;28;20035;-76
2023/05/24 10:11:05;;;;;;;7.95;4.47;;;23.30;64.00;;;;;;4965210;28;20118;-78
2023/05/24 10:13:35;;;;;;;10.15;4.05;;;23.30;64.40;;;;;;4965078;28;20046;-79
2023/05/24 10:16:02;;;;;;;7.78;3.95;;;23.40;64.60;;;;;;4950836;28;20030;-79
2023/05/24 10:18:28;;;;;;;9.10;4.50;;;23.40;64.30;;;;;;4963851;28;20037;-79
2023/05/24 10:20:58;;;;;;;5.95;4.28;;;23.40;64.50;;;;;;4965799;28;20046;-75
2023/05/24 10:23:27;;;;;;;6.95;4.13;;;23.40;64.60;;;;;;4967413;28;20073;-79
2023/05/24 10:26:07;;;;;;;8.57;4.22;;;23.30;64.70;;;;;;4966818;28;20035;-78
2023/05/24 10:28:42;;;;;;;6.95;3.65;;;23.40;64.50;;;;;;4966976;28;20201;-79
2023/05/24 10:31:16;;;;;;;6.85;3.80;;;23.30;64.20;;;;;;4964632;28;20080;-79
2023/05/24 10:33:47;;;;;;;5.70;3.90;;;23.30;64.70;;;;;;4962695;28;20055;-76
2023/05/24 10:36:14;;;;;;;6.55;3.72;;;23.30;64.80;;;;;;4964709;28;20122;-77
2023/05/24 10:38:41;;;;;;;6.20;3.65;;;23.30;65.10;;;;;;4966495;28;20092;-78
2023/05/24 10:41:08;;;;;;;6.43;4.55;;;23.30;64.90;;;;;;4965580;28;20576;-79
2023/05/24 10:43:35;;;;;;;7.88;4.07;;;23.30;64.70;;;;;;4962932;28;20514;-78
2023/05/24 10:46:06;;;;;;;5.97;3.83;;;23.30;64.80;;;;;;4961560;28;20039;-79
2023/05/24 10:48:35;;;;;;;8.93;4.43;;;23.30;65.10;;;;;;4961070;28;20035;-79
2023/05/24 10:51:20;;;;;;;9.75;3.97;;;23.30;65.50;;;;;;4950754;28;20446;-79
2023/05/24 10:53:48;;;;;;;7.55;4.28;;;23.30;65.10;;;;;;4965860;28;20043;-79
2023/05/24 10:56:15;;;;;;;6.60;4.20;;;23.20;65.40;;;;;;4965831;28;20126;-78
2023/05/24 10:58:59;;;;;;;8.02;4.20;;;23.30;65.40;;;;;;4962754;28;20058;-78
2023/05/24 11:01:30;;;;;;;6.38;3.95;;;23.30;65.30;;;;;;4948299;28;20405;-77
2023/05/24 11:04:17;;;;;;;6.38;4.18;;;23.20;65.00;;;;;;4962542;28;20059;-77
2023/05/24 11:07:02;;;;;;;7.47;4.18;;;23.20;65.30;;;;;;4962340;28;20036;-76
2023/05/24 11:09:29;;;;;;;10.98;4.53;;;23.20;65.40;;;;;;4964267;28;20042;-76
2023/05/24 11:11:58;;;;;;;7.25;4.40;;;23.20;65.60;;;;;;4962671;28;20038;-78
2023/05/24 11:14:28;;;;;;;5.93;4.00;;;23.10;66.00;;;;;;4963055;28;20046;-77
2023/05/24 11:16:54;;;;;;;8.10;4.07;;;23.20;65.90;;;;;;4963261;28;20108;-76
2023/05/24 11:19:48;;;;;;;11.32;4.75;;;23.30;66.50;;;;;;4963135;28;20117;-78
2023/05/24 11:22:14;;;;;;;7.35;4.00;;;23.30;65.40;;;;;;4962080;28;20077;-77
2023/05/24 11:24:41;;;;;;;7.53;4.63;;;23.30;65.40;;;;;;4961488;28;20043;-78
2023/05/24 11:27:11;;;;;;;9.15;4.32;;;23.30;65.20;;;;;;4961854;28;20038;-79
2023/05/24 11:29:46;;;;;;;9.00;3.67;;;23.30;65.30;;;;;;4964031;28;20815;-77
2023/05/24 11:32:19;;;;;;;6.63;4.00;;;23.30;65.20;;;;;;4977926;28;20031;-80
2023/05/24 11:34:46;;;;;;;5.38;4.28;;;23.30;64.90;;;;;;4962838;28;20122;-78
2023/05/24 11:37:12;;;;;;;8.50;4.40;;;23.30;65.00;;;;;;4961791;28;20050;-78
2023/05/24 11:39:39;;;;;;;6.05;4.07;;;23.30;65.20;;;;;;4963500;28;20482;-78
2023/05/24 11:42:06;;;;;;;7.18;4.35;;;23.30;65.50;;;;;;4974274;28;20042;-78
2023/05/24 11:44:33;;;;;;;9.30;4.55;;;23.30;65.70;;;;;;4962589;28;20105;-78
2023/05/24 11:47:01;;;;;;;7.82;4.47;;;23.30;66.10;;;;;;4962125;28;20051;-78
2023/05/24 11:49:27;;;;;;;9.90;4.30;;;23.30;66.60;;;;;;4961945;28;20092;-76
2023/05/24 11:51:57;;;;;;;12.05;5.50;;;23.30;66.50;;;;;;4962594;28;20156;-75
2023/05/24 11:54:25;;;;;;;8.23;4.82;;;23.40;67.00;;;;;;4946182;28;20548;-75
2023/05/24 11:56:53;;;;;;;15.25;5.00;;;23.30;67.10;;;;;;4961316;28;20388;-76
2023/05/24 11:59:24;;;;;;;8.90;4.70;;;23.40;67.50;;;;;;4963702;28;20039;-75
2023/05/24 12:01:58;;;;;;;10.02;5.13;;;23.40;67.50;;;;;;4960742;28;20042;-76
2023/05/24 12:04:23;;;;;;;9.73;4.75;;;23.40;67.60;;;;;;4962237;28;20494;-76
2023/05/24 12:06:49;;;;;;;7.80;5.05;;;23.30;67.70;;;;;;4961243;28;20066;-76
2023/05/24 12:09:17;;;;;;;17.65;5.97;;;23.40;67.80;;;;;;4961631;28;20457;-76
2023/05/24 12:11:47;;;;;;;11.55;5.40;;;23.30;67.90;;;;;;4960859;28;20057;-75
2023/05/24 12:14:14;;;;;;;10.02;5.45;;;23.40;67.60;;;;;;4962070;28;20038;-76
2023/05/24 12:16:44;;;;;;;10.20;5.32;;;23.40;67.90;;;;;;4960860;28;20037;-77
2023/05/24 12:19:20;;;;;;;6.88;4.82;;;23.40;68.00;;;;;;4961328;28;20092;-78
2023/05/24 12:21:48;;;;;;;9.73;5.10;;;23.40;68.10;;;;;;4961060;28;20464;-76
2023/05/24 12:24:15;;;;;;;8.02;5.10;;;23.30;68.00;;;;;;4962296;28;21457;-74
2023/05/24 12:26:43;;;;;;;8.98;4.53;;;23.30;67.50;;;;;;4961826;28;20077;-77
2023/05/24 12:29:13;;;;;;;9.07;5.13;;;23.30;67.30;;;;;;4960374;28;20035;-76
2023/05/24 12:31:46;;;;;;;8.50;5.07;;;23.30;67.20;;;;;;4961410;28;20475;-76
2023/05/24 12:34:12;;;;;;;6.90;4.65;;;23.40;67.30;;;;;;4963230;28;20038;-77
2023/05/24 12:36:41;;;;;;;5.45;3.83;;;23.40;66.50;;;;;;4948669;28;20440;-76
2023/05/24 12:39:21;;;;;;;6.25;4.40;;;23.30;66.60;;;;;;4961865;28;20059;-77
2023/05/24 12:41:52;;;;;;;6.57;4.05;;;23.40;66.50;;;;;;4963851;28;20050;-75
2023/05/24 12:44:27;;;;;;;5.95;4.07;;;23.40;66.80;;;;;;4961559;28;20066;-74
2023/05/24 12:46:54;;;;;;;6.65;4.20;;;23.40;66.80;;;;;;4962476;28;20030;-76
2023/05/24 12:49:24;;;;;;;7.63;3.90;;;23.40;66.80;;;;;;4943981;28;20165;-76
2023/05/24 12:51:50;;;;;;;10.23;4.40;;;23.40;66.70;;;;;;4964270;28;20063;-74